sensor_id;sensor_type;location;lat;lon;timestamp;pressure;altitude;pressure_sealevel;temperature;humidity
12358;BME280;6243;51.244;6.774;2023-08-30T00:00:55;115150.97;;;-141.28;39.85
12358;BME280;6243;51.244;6.774;2023-08-30T00:03:20;115150.97;;;-141.28;39.68
12358;BME280;6243;51.244;6.774;2023-08-30T00:05:46;115150.97;;;-141.28;39.79
12358;BME280;6243;51.244;6.774;2023-08-30T00:08:11;115150.97;;;-141.28;39.60
12358;BME280;6243;51.244;6.774;2023-08-30T00:10:38;115150.97;;;-141.28;39.99
12358;BME280;6243;51.244;6.774;2023-08-30T00:13:04;115150.97;;;-141.28;39.97
12358;BME280;6243;51.244;6.774;2023-08-30T00:15:29;115150.97;;;-141.28;39.84
12358;BME280;6243;51.244;6.774;2023-08-30T00:17:55;115150.97;;;-141.28;39.75
12358;BME280;6243;51.244;6.774;2023-08-30T00:20:21;115150.97;;;-141.28;40.09
12358;BME280;6243;51.244;6.774;2023-08-30T00:22:46;115150.97;;;-141.28;40.02
12358;BME280;6243;51.244;6.774;2023-08-30T00:25:12;115150.97;;;-141.28;40.08
12358;BME280;6243;51.244;6.774;2023-08-30T00:27:39;115150.97;;;-141.28;40.05
12358;BME280;6243;51.244;6.774;2023-08-30T00:30:06;115150.97;;;-141.28;40.26
12358;BME280;6243;51.244;6.774;2023-08-30T00:32:31;115150.97;;;-141.28;40.26
12358;BME280;6243;51.244;6.774;2023-08-30T00:34:57;115150.97;;;-141.28;40.25
12358;BME280;6243;51.244;6.774;2023-08-30T00:37:23;115150.97;;;-141.28;39.87
12358;BME280;6243;51.244;6.774;2023-08-30T00:39:48;115150.97;;;-141.28;39.81
12358;BME280;6243;51.244;6.774;2023-08-30T00:42:14;115150.97;;;-141.28;39.78
12358;BME280;6243;51.244;6.774;2023-08-30T00:44:41;115150.97;;;-141.28;39.63
12358;BME280;6243;51.244;6.774;2023-08-30T00:47:06;115150.97;;;-141.28;39.87
12358;BME280;6243;51.244;6.774;2023-08-30T00:49:32;115150.97;;;-141.28;39.75
12358;BME280;6243;51.244;6.774;2023-08-30T00:52:01;115150.97;;;-141.28;40.13
12358;BME280;6243;51.244;6.774;2023-08-30T00:54:27;115150.97;;;-141.28;39.95
12358;BME280;6243;51.244;6.774;2023-08-30T00:56:53;115150.97;;;-141.28;40.03
12358;BME280;6243;51.244;6.774;2023-08-30T00:59:19;115150.97;;;-141.28;39.85
12358;BME280;6243;51.244;6.774;2023-08-30T01:01:46;115150.97;;;-141.28;40.25
12358;BME280;6243;51.244;6.774;2023-08-30T01:04:12;115150.97;;;-141.28;40.24
12358;BME280;6243;51.244;6.774;2023-08-30T01:06:38;115150.97;;;-141.28;40.08
12358;BME280;6243;51.244;6.774;2023-08-30T01:09:04;115150.97;;;-141.28;39.87
12358;BME280;6243;51.244;6.774;2023-08-30T01:11:34;115150.97;;;-141.28;40.12
12358;BME280;6243;51.244;6.774;2023-08-30T01:14:05;115150.97;;;-141.28;40.19
12358;BME280;6243;51.244;6.774;2023-08-30T01:16:32;115150.97;;;-141.28;39.63
12358;BME280;6243;51.244;6.774;2023-08-30T01:19:07;115150.97;;;-141.28;39.81
12358;BME280;6243;51.244;6.774;2023-08-30T01:21:50;115150.97;;;-141.28;40.00
12358;BME280;6243;51.244;6.774;2023-08-30T01:24:25;115150.97;;;-141.28;39.55
12358;BME280;6243;51.244;6.774;2023-08-30T01:27:12;115150.97;;;-141.28;39.32
12358;BME280;6243;51.244;6.774;2023-08-30T01:29:42;115150.97;;;-141.28;39.79
12358;BME280;6243;51.244;6.774;2023-08-30T01:32:09;115150.97;;;-141.28;39.88
12358;BME280;6243;51.244;6.774;2023-08-30T01:34:35;115150.97;;;-141.28;39.93
12358;BME280;6243;51.244;6.774;2023-08-30T01:37:03;115150.97;;;-141.28;39.98
12358;BME280;6243;51.244;6.774;2023-08-30T01:39:30;115150.97;;;-141.28;39.34
12358;BME280;6243;51.244;6.774;2023-08-30T01:41:57;115150.97;;;-141.28;39.49
12358;BME280;6243;51.244;6.774;2023-08-30T01:44:24;115150.97;;;-141.28;39.55
12358;BME280;6243;51.244;6.774;2023-08-30T01:46:50;115150.97;;;-141.28;39.70
12358;BME280;6243;51.244;6.774;2023-08-30T01:49:15;115150.97;;;-141.28;39.85
12358;BME280;6243;51.244;6.774;2023-08-30T01:51:41;115150.97;;;-141.28;39.86
12358;BME280;6243;51.244;6.774;2023-08-30T01:54:07;115150.97;;;-141.28;39.78
12358;BME280;6243;51.244;6.774;2023-08-30T01:56:34;115150.97;;;-141.28;39.93
12358;BME280;6243;51.244;6.774;2023-08-30T01:59:00;115150.97;;;-141.28;39.30
12358;BME280;6243;51.244;6.774;2023-08-30T02:01:26;115150.97;;;-141.28;39.78
12358;BME280;6243;51.244;6.774;2023-08-30T02:03:52;115150.97;;;-141.28;39.95
12358;BME280;6243;51.244;6.774;2023-08-30T02:06:21;115150.97;;;-141.28;39.74
12358;BME280;6243;51.244;6.774;2023-08-30T02:08:59;115150.97;;;-141.28;39.95
12358;BME280;6243;51.244;6.774;2023-08-30T02:11:27;115150.97;;;-141.28;40.23
12358;BME280;6243;51.244;6.774;2023-08-30T02:13:57;115150.97;;;-141.28;40.30
12358;BME280;6243;51.244;6.774;2023-08-30T02:16:23;115150.97;;;-141.28;39.98
12358;BME280;6243;51.244;6.774;2023-08-30T02:18:52;115150.97;;;-141.28;40.39
12358;BME280;6243;51.244;6.774;2023-08-30T02:21:18;115150.97;;;-141.28;41.13
12358;BME280;6243;51.244;6.774;2023-08-30T02:23:44;115150.97;;;-141.28;41.72
12358;BME280;6243;51.244;6.774;2023-08-30T02:26:14;115150.97;;;-141.28;41.28
12358;BME280;6243;51.244;6.774;2023-08-30T02:28:39;115150.97;;;-141.28;40.76
12358;BME280;6243;51.244;6.774;2023-08-30T02:31:05;115150.97;;;-141.28;40.49
12358;BME280;6243;51.244;6.774;2023-08-30T02:33:31;115150.97;;;-141.28;40.52
12358;BME280;6243;51.244;6.774;2023-08-30T02:35:58;115150.97;;;-141.28;40.61
12358;BME280;6243;51.244;6.774;2023-08-30T02:38:23;115150.97;;;-141.28;40.79
12358;BME280;6243;51.244;6.774;2023-08-30T02:40:49;115150.97;;;-141.28;40.67
12358;BME280;6243;51.244;6.774;2023-08-30T02:43:14;115150.97;;;-141.28;40.69
12358;BME280;6243;51.244;6.774;2023-08-30T02:45:40;115150.97;;;-141.28;40.69
12358;BME280;6243;51.244;6.774;2023-08-30T02:48:06;115150.97;;;-141.28;40.64
12358;BME280;6243;51.244;6.774;2023-08-30T02:50:31;115150.97;;;-141.28;40.65
12358;BME280;6243;51.244;6.774;2023-08-30T02:52:58;115150.97;;;-141.28;40.72
12358;BME280;6243;51.244;6.774;2023-08-30T02:55:23;115150.97;;;-141.28;40.82
12358;BME280;6243;51.244;6.774;2023-08-30T02:57:49;115150.97;;;-141.28;40.99
12358;BME280;6243;51.244;6.774;2023-08-30T03:00:15;115150.97;;;-141.28;41.01
12358;BME280;6243;51.244;6.774;2023-08-30T03:02:41;115150.97;;;-141.28;41.50
12358;BME280;6243;51.244;6.774;2023-08-30T03:05:07;115150.97;;;-141.28;41.59
12358;BME280;6243;51.244;6.774;2023-08-30T03:07:32;115150.97;;;-141.28;41.30
12358;BME280;6243;51.244;6.774;2023-08-30T03:09:59;115150.97;;;-141.28;41.26
12358;BME280;6243;51.244;6.774;2023-08-30T03:12:25;115150.97;;;-141.28;41.03
12358;BME280;6243;51.244;6.774;2023-08-30T03:14:50;115150.97;;;-141.28;41.14
12358;BME280;6243;51.244;6.774;2023-08-30T03:17:16;115150.97;;;-141.28;40.99
12358;BME280;6243;51.244;6.774;2023-08-30T03:19:41;115150.97;;;-141.28;40.95
12358;BME280;6243;51.244;6.774;2023-08-30T03:22:07;115150.97;;;-141.28;41.12
12358;BME280;6243;51.244;6.774;2023-08-30T03:24:32;115150.97;;;-141.28;41.14
12358;BME280;6243;51.244;6.774;2023-08-30T03:26:59;115150.97;;;-141.28;41.17
12358;BME280;6243;51.244;6.774;2023-08-30T03:29:25;115150.97;;;-141.28;41.16
12358;BME280;6243;51.244;6.774;2023-08-30T03:31:50;115150.97;;;-141.28;41.40
12358;BME280;6243;51.244;6.774;2023-08-30T03:34:16;115150.97;;;-141.28;41.41
12358;BME280;6243;51.244;6.774;2023-08-30T03:36:41;115150.97;;;-141.28;41.40
12358;BME280;6243;51.244;6.774;2023-08-30T03:39:07;115150.97;;;-141.28;41.25
12358;BME280;6243;51.244;6.774;2023-08-30T03:41:32;115150.97;;;-141.28;41.34
12358;BME280;6243;51.244;6.774;2023-08-30T03:43:59;115150.97;;;-141.28;41.67
12358;BME280;6243;51.244;6.774;2023-08-30T03:46:24;115150.97;;;-141.28;41.52
12358;BME280;6243;51.244;6.774;2023-08-30T03:48:50;115150.97;;;-141.28;41.52
12358;BME280;6243;51.244;6.774;2023-08-30T03:51:15;115150.97;;;-141.28;41.49
12358;BME280;6243;51.244;6.774;2023-08-30T03:53:41;115150.97;;;-141.28;41.50
12358;BME280;6243;51.244;6.774;2023-08-30T03:56:06;115150.97;;;-141.28;41.45
12358;BME280;6243;51.244;6.774;2023-08-30T03:58:32;115150.97;;;-141.28;41.57
12358;BME280;6243;51.244;6.774;2023-08-30T04:00:59;115150.97;;;-141.28;41.65
12358;BME280;6243;51.244;6.774;2023-08-30T04:03:24;115150.97;;;-141.28;41.63
12358;BME280;6243;51.244;6.774;2023-08-30T04:05:54;115150.97;;;-141.28;41.91
12358;BME280;6243;51.244;6.774;2023-08-30T04:08:20;115150.97;;;-141.28;42.61
12358;BME280;6243;51.244;6.774;2023-08-30T04:10:45;115150.97;;;-141.28;42.09
12358;BME280;6243;51.244;6.774;2023-08-30T04:13:11;115150.97;;;-141.28;41.81
12358;BME280;6243;51.244;6.774;2023-08-30T04:15:38;115150.97;;;-141.28;41.87
12358;BME280;6243;51.244;6.774;2023-08-30T04:18:05;115150.97;;;-141.28;41.74
12358;BME280;6243;51.244;6.774;2023-08-30T04:20:31;115150.97;;;-141.28;41.91
12358;BME280;6243;51.244;6.774;2023-08-30T04:22:57;115150.97;;;-141.28;41.89
12358;BME280;6243;51.244;6.774;2023-08-30T04:25:22;115150.97;;;-141.28;41.75
12358;BME280;6243;51.244;6.774;2023-08-30T04:27:48;115150.97;;;-141.28;41.80
12358;BME280;6243;51.244;6.774;2023-08-30T04:30:14;115150.97;;;-141.28;41.91
12358;BME280;6243;51.244;6.774;2023-08-30T04:32:40;115150.97;;;-141.28;41.65
12358;BME280;6243;51.244;6.774;2023-08-30T04:35:08;115150.97;;;-141.28;41.77
12358;BME280;6243;51.244;6.774;2023-08-30T04:37:33;115150.97;;;-141.28;41.86
12358;BME280;6243;51.244;6.774;2023-08-30T04:39:59;115150.97;;;-141.28;41.84
12358;BME280;6243;51.244;6.774;2023-08-30T04:42:25;115150.97;;;-141.28;42.11
12358;BME280;6243;51.244;6.774;2023-08-30T04:44:51;115150.97;;;-141.28;42.48
12358;BME280;6243;51.244;6.774;2023-08-30T04:47:16;115150.97;;;-141.28;42.67
12358;BME280;6243;51.244;6.774;2023-08-30T04:49:42;115150.97;;;-141.28;43.65
12358;BME280;6243;51.244;6.774;2023-08-30T04:52:09;115150.97;;;-141.28;43.82
12358;BME280;6243;51.244;6.774;2023-08-30T04:54:34;115150.97;;;-141.28;43.21
12358;BME280;6243;51.244;6.774;2023-08-30T04:57:00;115150.97;;;-141.28;44.25
12358;BME280;6243;51.244;6.774;2023-08-30T04:59:25;115150.97;;;-141.28;43.92
12358;BME280;6243;51.244;6.774;2023-08-30T05:01:51;115150.97;;;-141.28;44.01
12358;BME280;6243;51.244;6.774;2023-08-30T05:04:16;115150.97;;;-141.28;43.52
12358;BME280;6243;51.244;6.774;2023-08-30T05:06:42;115150.97;;;-141.28;44.04
12358;BME280;6243;51.244;6.774;2023-08-30T05:09:09;115150.97;;;-141.28;43.00
12358;BME280;6243;51.244;6.774;2023-08-30T05:11:35;115150.97;;;-141.28;43.67
12358;BME280;6243;51.244;6.774;2023-08-30T05:14:00;115150.97;;;-141.28;43.62
12358;BME280;6243;51.244;6.774;2023-08-30T05:16:26;115150.97;;;-141.28;44.35
12358;BME280;6243;51.244;6.774;2023-08-30T05:18:51;115150.97;;;-141.28;44.58
12358;BME280;6243;51.244;6.774;2023-08-30T05:21:17;115150.97;;;-141.28;45.36
12358;BME280;6243;51.244;6.774;2023-08-30T05:23:42;115150.97;;;-141.28;45.23
12358;BME280;6243;51.244;6.774;2023-08-30T05:26:09;115150.97;;;-141.28;45.39
12358;BME280;6243;51.244;6.774;2023-08-30T05:28:35;115150.97;;;-141.28;45.15
12358;BME280;6243;51.244;6.774;2023-08-30T05:31:00;115150.97;;;-141.28;45.26
12358;BME280;6243;51.244;6.774;2023-08-30T05:33:26;115150.97;;;-141.28;45.56
12358;BME280;6243;51.244;6.774;2023-08-30T05:35:52;115150.97;;;-141.28;44.85
12358;BME280;6243;51.244;6.774;2023-08-30T05:38:17;115150.97;;;-141.28;45.28
12358;BME280;6243;51.244;6.774;2023-08-30T05:40:43;115150.97;;;-141.28;44.41
12358;BME280;6243;51.244;6.774;2023-08-30T05:43:09;115150.97;;;-141.28;44.48
12358;BME280;6243;51.244;6.774;2023-08-30T05:45:35;115150.97;;;-141.28;44.41
12358;BME280;6243;51.244;6.774;2023-08-30T05:48:00;115150.97;;;-141.28;44.12
12358;BME280;6243;51.244;6.774;2023-08-30T05:50:26;115150.97;;;-141.28;44.46
12358;BME280;6243;51.244;6.774;2023-08-30T05:52:51;115150.97;;;-141.28;44.38
12358;BME280;6243;51.244;6.774;2023-08-30T05:55:17;115150.97;;;-141.28;44.34
12358;BME280;6243;51.244;6.774;2023-08-30T05:57:43;115150.97;;;-141.28;44.29
12358;BME280;6243;51.244;6.774;2023-08-30T06:00:11;115150.97;;;-141.28;44.98
12358;BME280;6243;51.244;6.774;2023-08-30T06:02:37;115150.97;;;-141.28;45.13
12358;BME280;6243;51.244;6.774;2023-08-30T06:05:02;115150.97;;;-141.28;44.90
12358;BME280;6243;51.244;6.774;2023-08-30T06:07:28;115150.97;;;-141.28;45.63
12358;BME280;6243;51.244;6.774;2023-08-30T06:09:53;115150.97;;;-141.28;46.16
12358;BME280;6243;51.244;6.774;2023-08-30T06:12:19;115150.97;;;-141.28;45.39
12358;BME280;6243;51.244;6.774;2023-08-30T06:14:44;115150.97;;;-141.28;45.67
12358;BME280;6243;51.244;6.774;2023-08-30T06:17:11;115150.97;;;-141.28;45.90
12358;BME280;6243;51.244;6.774;2023-08-30T06:19:37;115150.97;;;-141.28;45.17
12358;BME280;6243;51.244;6.774;2023-08-30T06:22:02;115150.97;;;-141.28;45.07
12358;BME280;6243;51.244;6.774;2023-08-30T06:24:28;115150.97;;;-141.28;45.49
12358;BME280;6243;51.244;6.774;2023-08-30T06:26:53;115150.97;;;-141.28;44.69
12358;BME280;6243;51.244;6.774;2023-08-30T06:29:19;115150.97;;;-141.28;45.03
12358;BME280;6243;51.244;6.774;2023-08-30T06:31:44;115150.97;;;-141.28;45.56
12358;BME280;6243;51.244;6.774;2023-08-30T06:34:11;115150.97;;;-141.28;44.71
12358;BME280;6243;51.244;6.774;2023-08-30T06:36:37;115150.97;;;-141.28;44.93
12358;BME280;6243;51.244;6.774;2023-08-30T06:39:02;115150.97;;;-141.28;44.44
12358;BME280;6243;51.244;6.774;2023-08-30T06:41:28;115150.97;;;-141.28;44.22
12358;BME280;6243;51.244;6.774;2023-08-30T06:43:53;115150.97;;;-141.28;43.64
12358;BME280;6243;51.244;6.774;2023-08-30T06:46:19;115150.97;;;-141.28;44.12
12358;BME280;6243;51.244;6.774;2023-08-30T06:48:44;115150.97;;;-141.28;44.05
12358;BME280;6243;51.244;6.774;2023-08-30T06:51:11;115150.97;;;-141.28;43.21
12358;BME280;6243;51.244;6.774;2023-08-30T06:53:37;115150.97;;;-141.28;42.66
12358;BME280;6243;51.244;6.774;2023-08-30T06:56:02;115150.97;;;-141.28;42.86
12358;BME280;6243;51.244;6.774;2023-08-30T06:58:28;115150.97;;;-141.28;42.32
12358;BME280;6243;51.244;6.774;2023-08-30T07:00:53;115150.97;;;-141.28;42.33
12358;BME280;6243;51.244;6.774;2023-08-30T07:03:19;115150.97;;;-141.28;42.06
12358;BME280;6243;51.244;6.774;2023-08-30T07:05:45;115150.97;;;-141.28;42.11
12358;BME280;6243;51.244;6.774;2023-08-30T07:08:12;115150.97;;;-141.28;41.98
12358;BME280;6243;51.244;6.774;2023-08-30T07:10:37;115150.97;;;-141.28;41.54
12358;BME280;6243;51.244;6.774;2023-08-30T07:13:03;115150.97;;;-141.28;41.61
12358;BME280;6243;51.244;6.774;2023-08-30T07:15:28;115150.97;;;-141.28;41.75
12358;BME280;6243;51.244;6.774;2023-08-30T07:17:54;115150.97;;;-141.28;42.10
12358;BME280;6243;51.244;6.774;2023-08-30T07:20:19;115150.97;;;-141.28;41.78
12358;BME280;6243;51.244;6.774;2023-08-30T07:22:45;115150.97;;;-141.28;41.07
12358;BME280;6243;51.244;6.774;2023-08-30T07:25:12;115150.97;;;-141.28;40.97
12358;BME280;6243;51.244;6.774;2023-08-30T07:27:37;115150.97;;;-141.28;40.59
12358;BME280;6243;51.244;6.774;2023-08-30T07:30:03;115150.97;;;-141.28;40.39
12358;BME280;6243;51.244;6.774;2023-08-30T07:32:29;115150.97;;;-141.28;40.09
12358;BME280;6243;51.244;6.774;2023-08-30T07:34:55;115150.97;;;-141.28;40.31
12358;BME280;6243;51.244;6.774;2023-08-30T07:37:21;115150.97;;;-141.28;40.54
12358;BME280;6243;51.244;6.774;2023-08-30T07:39:47;115150.97;;;-141.28;39.77
12358;BME280;6243;51.244;6.774;2023-08-30T07:42:14;115150.97;;;-141.28;39.90
12358;BME280;6243;51.244;6.774;2023-08-30T07:44:40;115150.97;;;-141.28;40.13
12358;BME280;6243;51.244;6.774;2023-08-30T07:47:05;115150.97;;;-141.28;39.53
12358;BME280;6243;51.244;6.774;2023-08-30T07:49:31;115150.97;;;-141.28;39.19
12358;BME280;6243;51.244;6.774;2023-08-30T07:51:56;115150.97;;;-141.28;38.96
12358;BME280;6243;51.244;6.774;2023-08-30T07:54:22;115150.97;;;-141.28;38.76
12358;BME280;6243;51.244;6.774;2023-08-30T07:56:47;115150.97;;;-141.28;39.01
12358;BME280;6243;51.244;6.774;2023-08-30T07:59:14;115150.97;;;-141.28;39.04
12358;BME280;6243;51.244;6.774;2023-08-30T08:01:40;115150.97;;;-141.28;38.94
12358;BME280;6243;51.244;6.774;2023-08-30T08:04:05;115150.97;;;-141.28;38.89
12358;BME280;6243;51.244;6.774;2023-08-30T08:06:31;115150.97;;;-141.28;38.84
12358;BME280;6243;51.244;6.774;2023-08-30T08:08:56;115150.97;;;-141.28;38.58
12358;BME280;6243;51.244;6.774;2023-08-30T08:11:22;115150.97;;;-141.28;38.63
12358;BME280;6243;51.244;6.774;2023-08-30T08:13:47;115150.97;;;-141.28;39.05
12358;BME280;6243;51.244;6.774;2023-08-30T08:16:14;115150.97;;;-141.28;38.83
12358;BME280;6243;51.244;6.774;2023-08-30T08:18:40;115150.97;;;-141.28;38.81
12358;BME280;6243;51.244;6.774;2023-08-30T08:21:05;115150.97;;;-141.28;38.61
12358;BME280;6243;51.244;6.774;2023-08-30T08:23:31;115150.97;;;-141.28;38.99
12358;BME280;6243;51.244;6.774;2023-08-30T08:25:57;115150.97;;;-141.28;38.79
12358;BME280;6243;51.244;6.774;2023-08-30T08:28:23;115150.97;;;-141.28;38.53
12358;BME280;6243;51.244;6.774;2023-08-30T08:30:48;115150.97;;;-141.28;38.04
12358;BME280;6243;51.244;6.774;2023-08-30T08:33:15;115150.97;;;-141.28;38.03
12358;BME280;6243;51.244;6.774;2023-08-30T08:35:40;115150.97;;;-141.28;38.14
12358;BME280;6243;51.244;6.774;2023-08-30T08:38:06;115150.97;;;-141.28;37.86
12358;BME280;6243;51.244;6.774;2023-08-30T08:40:31;115150.97;;;-141.28;37.49
12358;BME280;6243;51.244;6.774;2023-08-30T08:42:57;115150.97;;;-141.28;37.54
12358;BME280;6243;51.244;6.774;2023-08-30T08:45:23;115150.97;;;-141.28;37.49
12358;BME280;6243;51.244;6.774;2023-08-30T08:47:48;115150.97;;;-141.28;37.49
12358;BME280;6243;51.244;6.774;2023-08-30T08:50:16;115150.97;;;-141.28;37.15
12358;BME280;6243;51.244;6.774;2023-08-30T08:52:42;115150.97;;;-141.28;37.54
12358;BME280;6243;51.244;6.774;2023-08-30T08:55:08;115150.97;;;-141.28;38.33
12358;BME280;6243;51.244;6.774;2023-08-30T08:57:34;115150.97;;;-141.28;38.96
12358;BME280;6243;51.244;6.774;2023-08-30T09:00:00;115150.97;;;-141.28;38.79
12358;BME280;6243;51.244;6.774;2023-08-30T09:02:26;115150.97;;;-141.28;39.01
12358;BME280;6243;51.244;6.774;2023-08-30T09:04:52;115150.97;;;-141.28;38.90
12358;BME280;6243;51.244;6.774;2023-08-30T09:07:20;115150.97;;;-141.28;38.69
12358;BME280;6243;51.244;6.774;2023-08-30T09:09:46;115150.97;;;-141.28;38.92
12358;BME280;6243;51.244;6.774;2023-08-30T09:12:12;115150.97;;;-141.28;38.43
12358;BME280;6243;51.244;6.774;2023-08-30T09:14:37;115150.97;;;-141.28;38.84
12358;BME280;6243;51.244;6.774;2023-08-30T09:17:03;115150.97;;;-141.28;38.26
12358;BME280;6243;51.244;6.774;2023-08-30T09:19:29;115150.97;;;-141.28;38.07
12358;BME280;6243;51.244;6.774;2023-08-30T09:21:57;115150.97;;;-141.28;38.30
12358;BME280;6243;51.244;6.774;2023-08-30T09:24:25;115150.97;;;-141.28;38.84
12358;BME280;6243;51.244;6.774;2023-08-30T09:26:52;115150.97;;;-141.28;38.02
12358;BME280;6243;51.244;6.774;2023-08-30T09:29:20;115150.97;;;-141.28;37.63
12358;BME280;6243;51.244;6.774;2023-08-30T09:31:45;115150.97;;;-141.28;37.72
12358;BME280;6243;51.244;6.774;2023-08-30T09:34:11;115150.97;;;-141.28;37.52
12358;BME280;6243;51.244;6.774;2023-08-30T09:36:38;115150.97;;;-141.28;37.54
12358;BME280;6243;51.244;6.774;2023-08-30T09:39:04;115150.97;;;-141.28;37.80
12358;BME280;6243;51.244;6.774;2023-08-30T09:41:32;115150.97;;;-141.28;37.50
12358;BME280;6243;51.244;6.774;2023-08-30T09:43:57;115150.97;;;-141.28;37.99
12358;BME280;6243;51.244;6.774;2023-08-30T09:46:23;115150.97;;;-141.28;38.30
12358;BME280;6243;51.244;6.774;2023-08-30T09:48:48;115150.97;;;-141.28;38.43
12358;BME280;6243;51.244;6.774;2023-08-30T09:51:15;115150.97;;;-141.28;38.53
12358;BME280;6243;51.244;6.774;2023-08-30T09:53:43;115150.97;;;-141.28;39.02
12358;BME280;6243;51.244;6.774;2023-08-30T09:56:12;115150.97;;;-141.28;38.64
12358;BME280;6243;51.244;6.774;2023-08-30T09:58:40;115150.97;;;-141.28;39.18
12358;BME280;6243;51.244;6.774;2023-08-30T10:01:06;115150.97;;;-141.28;39.43
12358;BME280;6243;51.244;6.774;2023-08-30T10:03:33;115150.97;;;-141.28;39.19
12358;BME280;6243;51.244;6.774;2023-08-30T10:05:59;115150.97;;;-141.28;39.52
12358;BME280;6243;51.244;6.774;2023-08-30T10:08:29;115150.97;;;-141.28;39.36
12358;BME280;6243;51.244;6.774;2023-08-30T10:10:56;115150.97;;;-141.28;39.47
12358;BME280;6243;51.244;6.774;2023-08-30T10:13:23;115150.97;;;-141.28;39.34
12358;BME280;6243;51.244;6.774;2023-08-30T10:15:54;115150.97;;;-141.28;39.47
12358;BME280;6243;51.244;6.774;2023-08-30T10:18:25;115150.97;;;-141.28;39.04
12358;BME280;6243;51.244;6.774;2023-08-30T10:20:54;115150.97;;;-141.28;39.12
12358;BME280;6243;51.244;6.774;2023-08-30T10:23:20;115150.97;;;-141.28;39.32
12358;BME280;6243;51.244;6.774;2023-08-30T10:25:46;115150.97;;;-141.28;39.29
12358;BME280;6243;51.244;6.774;2023-08-30T10:28:13;115150.97;;;-141.28;39.28
12358;BME280;6243;51.244;6.774;2023-08-30T10:30:40;115150.97;;;-141.28;39.35
12358;BME280;6243;51.244;6.774;2023-08-30T10:33:13;115150.97;;;-141.28;39.48
12358;BME280;6243;51.244;6.774;2023-08-30T10:35:46;115150.97;;;-141.28;39.19
12358;BME280;6243;51.244;6.774;2023-08-30T10:38:12;115150.97;;;-141.28;39.19
12358;BME280;6243;51.244;6.774;2023-08-30T10:40:44;115150.97;;;-141.28;41.52
12358;BME280;6243;51.244;6.774;2023-08-30T10:43:11;115150.97;;;-141.28;41.98
12358;BME280;6243;51.244;6.774;2023-08-30T10:45:37;115150.97;;;-141.28;41.76
12358;BME280;6243;51.244;6.774;2023-08-30T10:48:03;115150.97;;;-141.28;42.84
12358;BME280;6243;51.244;6.774;2023-08-30T10:50:31;115150.97;;;-141.28;43.08
12358;BME280;6243;51.244;6.774;2023-08-30T10:52:57;115150.97;;;-141.28;43.34
12358;BME280;6243;51.244;6.774;2023-08-30T10:55:23;115150.97;;;-141.28;43.21
12358;BME280;6243;51.244;6.774;2023-08-30T10:57:58;115150.97;;;-141.28;42.56
12358;BME280;6243;51.244;6.774;2023-08-30T11:00:24;115150.97;;;-141.28;42.42
12358;BME280;6243;51.244;6.774;2023-08-30T11:02:50;115150.97;;;-141.28;42.64
12358;BME280;6243;51.244;6.774;2023-08-30T11:05:18;115150.97;;;-141.28;42.81
12358;BME280;6243;51.244;6.774;2023-08-30T11:07:45;115150.97;;;-141.28;43.32
12358;BME280;6243;51.244;6.774;2023-08-30T11:10:11;115150.97;;;-141.28;43.33
12358;BME280;6243;51.244;6.774;2023-08-30T11:12:39;115150.97;;;-141.28;42.96
12358;BME280;6243;51.244;6.774;2023-08-30T11:15:07;115150.97;;;-141.28;43.85
12358;BME280;6243;51.244;6.774;2023-08-30T11:17:33;115150.97;;;-141.28;43.54
12358;BME280;6243;51.244;6.774;2023-08-30T11:20:06;115150.97;;;-141.28;44.07
12358;BME280;6243;51.244;6.774;2023-08-30T11:22:32;115150.97;;;-141.28;43.84
12358;BME280;6243;51.244;6.774;2023-08-30T11:24:59;115150.97;;;-141.28;43.51
12358;BME280;6243;51.244;6.774;2023-08-30T11:27:24;115150.97;;;-141.28;43.87
12358;BME280;6243;51.244;6.774;2023-08-30T11:29:50;115150.97;;;-141.28;43.95
12358;BME280;6243;51.244;6.774;2023-08-30T11:32:16;115150.97;;;-141.28;43.54
12358;BME280;6243;51.244;6.774;2023-08-30T11:34:41;115150.97;;;-141.28;44.85
12358;BME280;6243;51.244;6.774;2023-08-30T11:37:07;115150.97;;;-141.28;44.01
12358;BME280;6243;51.244;6.774;2023-08-30T11:39:33;115150.97;;;-141.28;44.23
12358;BME280;6243;51.244;6.774;2023-08-30T11:42:03;115150.97;;;-141.28;44.54
12358;BME280;6243;51.244;6.774;2023-08-30T11:44:28;115150.97;;;-141.28;44.33
12358;BME280;6243;51.244;6.774;2023-08-30T11:46:57;115150.97;;;-141.28;44.02
12358;BME280;6243;51.244;6.774;2023-08-30T11:49:23;115150.97;;;-141.28;43.94
12358;BME280;6243;51.244;6.774;2023-08-30T11:51:49;115150.97;;;-141.28;44.08
12358;BME280;6243;51.244;6.774;2023-08-30T11:54:15;115150.97;;;-141.28;45.17
12358;BME280;6243;51.244;6.774;2023-08-30T11:56:40;115150.97;;;-141.28;44.27
12358;BME280;6243;51.244;6.774;2023-08-30T11:59:18;115150.97;;;-141.28;44.22
12358;BME280;6243;51.244;6.774;2023-08-30T12:01:43;115150.97;;;-141.28;44.02
12358;BME280;6243;51.244;6.774;2023-08-30T12:04:10;115150.97;;;-141.28;43.72
12358;BME280;6243;51.244;6.774;2023-08-30T12:06:35;115150.97;;;-141.28;44.05
12358;BME280;6243;51.244;6.774;2023-08-30T12:09:01;115150.97;;;-141.28;43.86
12358;BME280;6243;51.244;6.774;2023-08-30T12:11:26;115150.97;;;-141.28;44.73
12358;BME280;6243;51.244;6.774;2023-08-30T12:13:52;115150.97;;;-141.28;44.96
12358;BME280;6243;51.244;6.774;2023-08-30T12:16:19;115150.97;;;-141.28;44.90
12358;BME280;6243;51.244;6.774;2023-08-30T12:18:44;115150.97;;;-141.28;44.66
12358;BME280;6243;51.244;6.774;2023-08-30T12:21:10;115150.97;;;-141.28;44.52
12358;BME280;6243;51.244;6.774;2023-08-30T12:23:35;115150.97;;;-141.28;44.69
12358;BME280;6243;51.244;6.774;2023-08-30T12:26:02;115150.97;;;-141.28;44.69
12358;BME280;6243;51.244;6.774;2023-08-30T12:28:28;115150.97;;;-141.28;44.76
12358;BME280;6243;51.244;6.774;2023-08-30T12:30:53;115150.97;;;-141.28;44.67
12358;BME280;6243;51.244;6.774;2023-08-30T12:33:20;115150.97;;;-141.28;44.29
12358;BME280;6243;51.244;6.774;2023-08-30T12:35:46;115150.97;;;-141.28;45.23